MUVR/VRA METAR and TAF weather

Enter ICAO airport designator
Station Type Date Time Source
MUVR METAR 2022/12/05 14:50 UTC NOAA

MUVR 051450Z 10006KT 050V140 9000 FEW020 25/18 Q1019


Station Type Date Time Source
MUVR Decoded METAR 2022/12/05 14:50 UTC NOAA

Varadero, Matanzas, Cuba (MUVR) 23-08N 081-17W 3M
Dec 05, 2022 - 09:50 AM EST / 2022.12.05 1450 UTC
Wind: from the E (100 degrees) at 7 MPH (6 KT) (direction variable):0
Visibility: 5 mile(s):0
Sky conditions: mostly clear
Temperature: 77 F (25 C)
Dew Point: 64 F (18 C)
Relative Humidity: 65%
Pressure (altimeter): 30.09 in. Hg (1019 hPa)
ob: MUVR 051450Z 10006KT 050V140 9000 FEW020 25/18 Q1019
cycle: 15

Station Type Date Time Source
MUVR TAF 2022/12/05 12:03 UTC NOAA

TAF MUVR 051100Z 0512/0612 VRB03KT 9000 FEW020
BECMG 0515/0517 06012KT SCT020
BECMG 0601/0603 VRB03KT FEW020

Example: see airport list